KSVN/SVN METAR and TAF weather

Enter ICAO airport designator
Station Type Date Time Source
KSVN METAR 2018/12/15 01:56 UTC NOAA

KSVN 150156Z 18007KT 10SM -RA SCT006 BKN032 OVC110 17/16 A2994 RMK AO2A SLP142 P0004 T01740164 FZRANO $


Station Type Date Time Source
KSVN Decoded METAR 2018/12/15 01:56 UTC NOAA

Hunter U. S. Army Airfield , GA, United States (KSVN) 32-01N 081-09W
Dec 14, 2018 - 08:56 PM EST / 2018.12.15 0156 UTC
Wind: from the S (180 degrees) at 8 MPH (7 KT):0
Visibility: 10 mile(s):0
Sky conditions: overcast
Weather: light rain
Precipitation last hour: 0.04 inches
Temperature: 63.3 F (17.4 C)
Dew Point: 61.5 F (16.4 C)
Relative Humidity: 93%
Pressure (altimeter): 29.94 in. Hg (1013 hPa)
ob: KSVN 150156Z 18007KT 10SM -RA SCT006 BKN032 OVC110 17/16 A2994 RMK AO2A SLP142 P0004 T01740164 FZRANO
cycle: 2

Station Type Date Time Source
KSVN TAF 2018/12/15 00:27 UTC NOAA

TAF
AMD KSVN 150010Z 1500/1603 19009KT 6000 -RA BKN010 BKN030 QNH2994INS
BECMG 1504/1505 22009KT 8000 -RA OVC003 QNH2995INS
BECMG 1510/1511 25009KT 8000 -RA SCT007 BKN015 OVC040 QNH2996INS
BECMG 1515/1516 23015G25KT 9999 NSW BKN018 BKN030 QNH2997INS
BECMG 1521/1522 24009KT 9999 BKN030 QNH2998INS TX18/1521Z TN13/1511Z


Example: see airport list